createdAt,value
2022-11-07T00:01:47.171Z,7.58
2022-11-07T00:05:03.705Z,7.45
2022-11-07T00:08:19.888Z,7.51
2022-11-07T00:11:36.360Z,7.47
2022-11-07T00:14:52.875Z,7.50
2022-11-07T00:18:09.767Z,7.47
2022-11-07T00:21:26.224Z,7.48
2022-11-07T00:24:42.604Z,7.46
2022-11-07T00:27:58.884Z,7.48
2022-11-07T00:31:16.987Z,7.46
2022-11-07T00:34:33.704Z,7.37
2022-11-07T00:37:50.010Z,7.32
2022-11-07T00:41:08.829Z,7.32
2022-11-07T00:44:25.570Z,7.28
2022-11-07T00:47:41.832Z,7.23
2022-11-07T00:50:58.425Z,7.22
2022-11-07T00:54:15.373Z,7.24
2022-11-07T00:57:31.564Z,7.26
2022-11-07T01:00:48.272Z,7.24
2022-11-07T01:04:19.918Z,7.06
2022-11-07T01:07:38.329Z,7.00
2022-11-07T01:10:54.792Z,6.98
2022-11-07T01:14:12.712Z,6.93
2022-11-07T01:17:29.229Z,6.88
2022-11-07T01:20:46.060Z,6.96
2022-11-07T01:24:04.418Z,6.91
2022-11-07T01:27:21.007Z,6.96
2022-11-07T01:30:37.618Z,7.01
2022-11-07T01:33:54.098Z,7.06
2022-11-07T01:37:10.336Z,7.06
2022-11-07T01:40:26.816Z,7.05
2022-11-07T01:43:56.086Z,6.84
2022-11-07T01:47:12.490Z,6.73
2022-11-07T01:50:29.413Z,6.67
2022-11-07T01:53:46.833Z,6.74
2022-11-07T01:57:06.279Z,6.80
2022-11-07T02:00:26.976Z,6.84
2022-11-07T02:03:43.412Z,6.83
2022-11-07T02:07:04.423Z,6.88
2022-11-07T02:10:22.124Z,6.93
2022-11-07T02:13:39.320Z,6.89
2022-11-07T02:16:56.253Z,6.92
2022-11-07T02:20:14.207Z,6.94
2022-11-07T02:23:36.043Z,6.88
2022-11-07T02:26:53.272Z,6.78
2022-11-07T02:30:15.602Z,6.78
2022-11-07T02:33:32.726Z,6.85
2022-11-07T02:36:51.790Z,6.86
2022-11-07T02:40:11.710Z,6.90
2022-11-07T02:43:33.061Z,6.85
2022-11-07T02:46:49.767Z,6.85
2022-11-07T02:50:05.964Z,6.84
2022-11-07T02:53:22.826Z,6.78
2022-11-07T02:56:39.419Z,6.74
2022-11-07T02:59:56.585Z,6.74
2022-11-07T03:03:14.136Z,6.74
2022-11-07T03:06:33.977Z,6.74
2022-11-07T03:09:50.369Z,6.66
2022-11-07T03:13:07.396Z,6.62
2022-11-07T03:16:25.670Z,6.62
2022-11-07T03:19:42.577Z,6.63
2022-11-07T03:22:59.089Z,6.64
2022-11-07T03:26:16.435Z,6.67
2022-11-07T03:29:32.738Z,6.70
2022-11-07T03:32:50.147Z,6.68
2022-11-07T03:36:06.553Z,6.67
2022-11-07T03:39:25.813Z,6.64
2022-11-07T03:42:45.168Z,6.70
2022-11-07T03:46:01.492Z,6.73
2022-11-07T03:49:18.949Z,6.68
2022-11-07T03:52:35.408Z,6.65
2022-11-07T03:55:53.765Z,6.60
2022-11-07T03:59:10.472Z,6.65
2022-11-07T04:02:27.616Z,6.62
2022-11-07T04:05:44.519Z,6.59
2022-11-07T04:09:01.017Z,6.61
2022-11-07T04:12:33.328Z,6.51
2022-11-07T04:16:06.225Z,6.45
2022-11-07T04:19:23.100Z,6.49
2022-11-07T04:22:40.384Z,6.41
2022-11-07T04:26:10.897Z,6.36
2022-11-07T04:29:27.190Z,6.40
2022-11-07T04:32:43.411Z,6.43
2022-11-07T04:35:59.625Z,6.42
2022-11-07T04:39:15.991Z,6.47
2022-11-07T04:42:32.334Z,6.54
2022-11-07T04:45:49.929Z,6.55
2022-11-07T04:49:06.245Z,6.53
2022-11-07T04:52:23.392Z,6.55
2022-11-07T04:55:40.944Z,6.49
2022-11-07T04:58:57.170Z,6.51
2022-11-07T05:02:16.181Z,6.63
2022-11-07T05:05:32.717Z,6.70
2022-11-07T05:08:49.156Z,6.76
2022-11-07T05:12:06.648Z,6.78
2022-11-07T05:15:23.670Z,6.76
2022-11-07T05:18:39.971Z,6.79
2022-11-07T05:21:58.422Z,6.61
2022-11-07T05:25:16.676Z,6.67
2022-11-07T05:28:39.571Z,6.70
2022-11-07T05:31:54.348Z,6.74
2022-11-07T05:35:11.491Z,6.69
2022-11-07T05:38:28.105Z,6.72
2022-11-07T05:41:49.203Z,6.78
2022-11-07T05:45:06.183Z,6.84
2022-11-07T05:48:23.543Z,6.91
2022-11-07T05:51:39.741Z,6.98
2022-11-07T05:54:56.215Z,7.01
2022-11-07T05:58:18.190Z,6.99
2022-11-07T06:01:34.716Z,6.96
2022-11-07T06:04:51.276Z,6.99
2022-11-07T06:08:07.898Z,6.98
2022-11-07T06:11:24.711Z,7.05
2022-11-07T06:14:41.358Z,7.03
2022-11-07T06:18:00.772Z,7.06
2022-11-07T06:21:17.654Z,7.10
2022-11-07T06:24:33.865Z,7.12
2022-11-07T06:27:50.198Z,7.23
2022-11-07T06:31:12.133Z,7.27
2022-11-07T06:34:29.652Z,7.30
2022-11-07T06:37:46.741Z,7.38
2022-11-07T06:41:05.817Z,7.43
2022-11-07T06:44:22.295Z,7.50
2022-11-07T06:47:38.943Z,7.50
2022-11-07T06:50:57.052Z,7.59
2022-11-07T06:54:14.084Z,7.66
2022-11-07T06:57:30.676Z,7.71
2022-11-07T07:00:47.388Z,7.75
2022-11-07T07:04:06.309Z,7.76
2022-11-07T07:07:24.866Z,7.82
2022-11-07T07:10:45.573Z,7.89
2022-11-07T07:14:04.693Z,7.93
2022-11-07T07:17:23.913Z,8.02
2022-11-07T07:20:40.446Z,8.04
2022-11-07T07:24:01.021Z,8.02
2022-11-07T07:27:22.050Z,8.12
2022-11-07T07:30:51.351Z,8.14
2022-11-07T07:34:09.185Z,8.19
2022-11-07T07:37:41.217Z,8.23
2022-11-07T07:40:59.412Z,8.30
2022-11-07T07:44:23.895Z,8.39
2022-11-07T07:47:44.983Z,8.49
2022-11-07T07:51:01.512Z,8.55
2022-11-07T07:54:20.035Z,8.64
2022-11-07T07:57:50.965Z,8.69
2022-11-07T08:01:12.265Z,8.72
2022-11-07T08:04:38.635Z,8.81
2022-11-07T08:08:02.149Z,8.93
2022-11-07T08:11:19.384Z,9.05
2022-11-07T08:14:35.963Z,9.16
2022-11-07T08:17:55.043Z,9.22
2022-11-07T08:21:12.171Z,9.22
2022-11-07T08:24:30.923Z,9.24
2022-11-07T08:27:49.445Z,9.23
2022-11-07T08:31:34.400Z,9.32
2022-11-07T08:34:53.014Z,9.34
2022-11-07T08:38:12.541Z,9.37
2022-11-07T08:41:29.738Z,9.52
2022-11-07T08:44:45.704Z,9.63
2022-11-07T08:48:06.198Z,9.87
2022-11-07T08:51:25.024Z,10.06
2022-11-07T08:54:41.622Z,10.29
2022-11-07T08:58:08.230Z,10.39
2022-11-07T09:04:41.986Z,10.66
2022-11-07T09:07:58.409Z,10.75
2022-11-07T09:11:16.465Z,10.83
2022-11-07T09:14:32.910Z,10.84
2022-11-07T09:17:51.824Z,10.89
2022-11-07T09:21:10.294Z,10.96
2022-11-07T09:24:32.585Z,11.00
2022-11-07T09:28:23.407Z,11.10
2022-11-07T09:31:39.623Z,11.17
2022-11-07T09:35:01.984Z,11.27
2022-11-07T09:38:15.512Z,11.35
2022-11-07T09:41:47.582Z,11.46
2022-11-07T09:46:05.543Z,11.60
2022-11-07T09:49:16.924Z,11.73
2022-11-07T09:52:42.855Z,11.81
2022-11-07T09:56:04.890Z,11.85
2022-11-07T09:59:28.107Z,11.88
2022-11-07T10:02:48.461Z,11.89
2022-11-07T10:06:14.230Z,11.89
2022-11-07T10:09:39.098Z,11.88
2022-11-07T10:13:08.365Z,11.87
2022-11-07T10:16:35.856Z,11.80
2022-11-07T10:20:24.531Z,11.87
2022-11-07T10:23:50.320Z,11.93
2022-11-07T10:27:10.889Z,11.93
2022-11-07T10:30:29.154Z,11.94
2022-11-07T10:34:08.019Z,11.89
2022-11-07T10:37:24.525Z,11.90
2022-11-07T10:40:46.872Z,11.89
2022-11-07T10:44:08.909Z,11.93
2022-11-07T10:47:35.334Z,11.89
2022-11-07T10:51:00.822Z,11.87
2022-11-07T10:54:26.069Z,11.87
2022-11-07T10:57:43.512Z,11.83
2022-11-07T11:01:13.621Z,11.82
2022-11-07T11:04:35.134Z,11.76
2022-11-07T11:07:51.580Z,11.75
2022-11-07T11:11:10.486Z,11.71
2022-11-07T11:14:34.153Z,11.75
2022-11-07T11:17:52.722Z,11.75
2022-11-07T11:21:11.082Z,11.79
2022-11-07T11:24:42.622Z,11.79
2022-11-07T11:28:04.331Z,11.80
2022-11-07T11:31:30.077Z,11.81
2022-11-07T11:34:55.644Z,11.86
2022-11-07T11:38:17.146Z,11.90
2022-11-07T11:41:41.585Z,11.95
2022-11-07T11:45:01.939Z,12.02
2022-11-07T11:48:24.668Z,12.05
2022-11-07T11:51:48.650Z,12.16
2022-11-07T11:55:06.460Z,12.22
2022-11-07T11:58:34.793Z,12.25
2022-11-07T12:07:50.405Z,12.34
2022-11-07T12:11:13.174Z,12.34
2022-11-07T12:15:03.351Z,12.35
2022-11-07T12:18:27.658Z,12.37
2022-11-07T12:21:49.484Z,12.34
2022-11-07T12:25:10.588Z,12.32
2022-11-07T12:28:39.284Z,12.28
2022-11-07T12:32:07.591Z,12.25
2022-11-07T12:35:42.637Z,12.26
2022-11-07T12:39:34.461Z,12.25
2022-11-07T12:43:00.112Z,12.27
2022-11-07T12:46:22.624Z,12.28
2022-11-07T12:50:08.204Z,12.30
2022-11-07T12:53:35.480Z,12.30
2022-11-07T12:56:52.544Z,12.28
2022-11-07T13:00:13.528Z,12.32
2022-11-07T13:03:48.063Z,12.34
2022-11-07T13:07:09.562Z,12.36
2022-11-07T13:10:30.571Z,12.34
2022-11-07T13:13:58.239Z,12.31
2022-11-07T13:17:44.321Z,12.27
2022-11-07T13:21:10.291Z,12.20
2022-11-07T13:24:31.537Z,12.13
2022-11-07T13:27:50.276Z,12.06
2022-11-07T13:31:09.624Z,12.05
2022-11-07T13:37:47.893Z,11.97
2022-11-07T13:41:08.370Z,11.95
2022-11-07T13:44:31.922Z,11.91
2022-11-07T13:47:51.081Z,11.92
2022-11-07T13:51:10.501Z,11.89
2022-11-07T13:54:32.887Z,11.85
2022-11-07T13:57:53.586Z,11.81
2022-11-07T14:01:19.273Z,11.84
2022-11-07T14:04:44.592Z,11.78
2022-11-07T14:08:00.060Z,11.73
2022-11-07T14:11:25.034Z,11.65
2022-11-07T14:14:42.909Z,11.62
2022-11-07T14:17:59.532Z,11.55
2022-11-07T14:21:27.138Z,11.51
2022-11-07T14:24:50.649Z,11.50
2022-11-07T14:28:08.258Z,11.51
2022-11-07T14:31:30.483Z,11.47
2022-11-07T14:34:51.492Z,11.46
2022-11-07T14:38:16.687Z,11.42
2022-11-07T14:41:33.607Z,11.39
2022-11-07T14:44:55.207Z,11.28
2022-11-07T14:48:45.060Z,11.26
2022-11-07T14:57:00.101Z,11.19
2022-11-07T15:00:22.731Z,11.16
2022-11-07T15:06:55.569Z,11.11
2022-11-07T15:10:31.529Z,11.03
2022-11-07T15:13:48.939Z,10.98
2022-11-07T15:17:05.696Z,10.96
2022-11-07T15:20:39.530Z,10.96
2022-11-07T15:23:55.853Z,10.92
2022-11-07T15:27:22.614Z,10.88
2022-11-07T15:30:41.880Z,10.84
2022-11-07T15:33:58.605Z,10.85
2022-11-07T15:37:22.138Z,10.84
2022-11-07T15:40:40.516Z,10.78
2022-11-07T15:44:10.679Z,10.74
2022-11-07T15:47:33.605Z,10.66
2022-11-07T15:50:58.246Z,10.64
2022-11-07T15:54:19.518Z,10.62
2022-11-07T15:57:35.905Z,10.62
2022-11-07T16:00:52.034Z,10.63
2022-11-07T16:04:08.270Z,10.63
2022-11-07T16:07:28.081Z,10.61
2022-11-07T16:10:44.627Z,10.65
2022-11-07T16:14:29.432Z,10.67
2022-11-07T16:17:23.764Z,10.68
2022-11-07T16:20:40.184Z,10.59
2022-11-07T16:23:57.553Z,10.48
2022-11-07T16:27:15.421Z,10.36
2022-11-07T16:30:33.570Z,10.31
2022-11-07T16:33:49.863Z,10.27
2022-11-07T16:37:06.475Z,10.18
2022-11-07T16:40:31.296Z,10.04
2022-11-07T16:43:49.505Z,9.91
2022-11-07T16:47:06.478Z,9.76
2022-11-07T16:50:25.488Z,9.69
2022-11-07T16:53:41.942Z,9.60
2022-11-07T16:56:58.833Z,9.55
2022-11-07T17:00:24.895Z,9.47
2022-11-07T17:03:41.691Z,9.44
2022-11-07T17:06:57.971Z,9.43
2022-11-07T17:10:21.006Z,9.43
2022-11-07T17:13:37.018Z,9.41
2022-11-07T17:16:56.075Z,9.33
2022-11-07T17:20:28.418Z,9.30
2022-11-07T17:23:38.123Z,9.18
2022-11-07T17:26:54.299Z,9.15
2022-11-07T17:30:17.255Z,9.07
2022-11-07T17:33:34.286Z,8.89
2022-11-07T17:36:55.806Z,8.85
2022-11-07T17:40:13.399Z,8.73
2022-11-07T17:43:31.931Z,8.64
2022-11-07T17:47:00.053Z,8.51
2022-11-07T17:50:24.591Z,8.47
2022-11-07T17:53:41.465Z,8.35
2022-11-07T17:56:57.972Z,8.22
2022-11-07T18:00:23.272Z,8.17
2022-11-07T18:03:40.625Z,8.02
2022-11-07T18:06:57.441Z,7.85
2022-11-07T18:10:16.939Z,7.82
2022-11-07T18:13:34.781Z,7.73
2022-11-07T18:25:56.934Z,7.42
2022-11-07T18:29:26.922Z,7.40
2022-11-07T18:32:42.924Z,7.42
2022-11-07T18:36:19.421Z,7.36
2022-11-07T18:39:34.164Z,7.29
2022-11-07T18:42:54.105Z,7.20
2022-11-07T18:46:14.573Z,7.12
2022-11-07T18:49:44.021Z,7.05
2022-11-07T18:53:00.336Z,7.04
2022-11-07T18:56:19.745Z,7.03
2022-11-07T18:59:36.252Z,6.97
2022-11-07T19:03:09.681Z,6.80
2022-11-07T19:06:28.613Z,6.82
2022-11-07T19:09:45.141Z,6.80
2022-11-07T19:13:07.857Z,6.74
2022-11-07T19:16:22.712Z,6.67
2022-11-07T19:19:38.943Z,6.60
2022-11-07T19:22:55.412Z,6.60
2022-11-07T19:26:13.543Z,6.56
2022-11-07T19:29:30.377Z,6.47
2022-11-07T19:32:49.003Z,6.45
2022-11-07T19:36:11.294Z,6.37
2022-11-07T19:39:27.540Z,6.34
2022-11-07T19:42:44.101Z,6.39
2022-11-07T19:46:00.628Z,6.46
2022-11-07T19:49:17.064Z,6.44
2022-11-07T19:52:34.260Z,6.37
2022-11-07T19:55:51.908Z,6.32
2022-11-07T19:59:08.831Z,6.33
2022-11-07T20:02:35.509Z,6.33
2022-11-07T20:05:48.555Z,6.41
2022-11-07T20:09:05.066Z,6.34
2022-11-07T20:12:21.318Z,6.17
2022-11-07T20:15:37.871Z,6.11
2022-11-07T20:18:54.657Z,6.00
2022-11-07T20:22:15.121Z,5.99
2022-11-07T20:25:33.727Z,6.01
2022-11-07T20:28:50.380Z,6.06
2022-11-07T20:32:06.567Z,5.96
2022-11-07T20:35:23.018Z,5.87
2022-11-07T20:38:40.185Z,5.83
2022-11-07T20:41:57.054Z,5.75
2022-11-07T20:45:15.184Z,5.71
2022-11-07T20:48:31.768Z,5.73
2022-11-07T20:51:48.507Z,5.77
2022-11-07T20:55:05.293Z,5.75
2022-11-07T20:58:23.989Z,5.69
2022-11-07T21:01:43.299Z,5.64
2022-11-07T21:08:18.705Z,5.56
2022-11-07T21:11:35.801Z,5.58
2022-11-07T21:14:52.154Z,5.61
2022-11-07T21:18:09.828Z,5.63
2022-11-07T21:21:29.792Z,5.54
2022-11-07T21:24:46.463Z,5.50
2022-11-07T21:28:06.758Z,5.45
2022-11-07T21:31:29.167Z,5.41
2022-11-07T21:34:47.118Z,5.39
2022-11-07T21:38:04.126Z,5.39
2022-11-07T21:41:21.390Z,5.34
2022-11-07T21:44:38.452Z,5.30
2022-11-07T21:47:55.240Z,5.33
2022-11-07T21:51:23.240Z,5.35
2022-11-07T21:54:42.691Z,5.30
2022-11-07T21:57:58.875Z,5.27
2022-11-07T22:01:16.287Z,5.25
2022-11-07T22:04:33.200Z,5.22
2022-11-07T22:07:55.454Z,5.30
2022-11-07T22:11:20.273Z,5.29
2022-11-07T22:14:36.575Z,5.24
2022-11-07T22:17:53.486Z,5.21
2022-11-07T22:21:27.351Z,5.19
2022-11-07T22:24:43.859Z,5.19
2022-11-07T22:28:04.351Z,5.15
2022-11-07T22:31:25.925Z,5.16
2022-11-07T22:34:44.554Z,5.15
2022-11-07T22:38:03.447Z,5.12
2022-11-07T22:41:26.320Z,5.08
2022-11-07T22:44:42.806Z,5.03
2022-11-07T22:47:59.014Z,4.98
2022-11-07T22:54:32.382Z,4.94
2022-11-07T22:57:49.017Z,4.92
2022-11-07T23:01:05.773Z,4.93
2022-11-07T23:04:28.621Z,4.93
2022-11-07T23:07:42.449Z,4.89
2022-11-07T23:14:30.947Z,4.84
2022-11-07T23:17:49.441Z,4.84
2022-11-07T23:21:16.189Z,4.78
2022-11-07T23:24:32.581Z,4.83
2022-11-07T23:27:48.739Z,4.81
2022-11-07T23:31:05.724Z,4.80
2022-11-07T23:34:23.540Z,4.76
2022-11-07T23:37:40.691Z,4.72
2022-11-07T23:40:58.463Z,4.72
2022-11-07T23:44:19.217Z,4.75
2022-11-07T23:48:04.361Z,4.70
2022-11-07T23:54:56.052Z,4.72
2022-11-07T23:58:26.331Z,4.69
